createdAt,value
2022-09-11T00:02:21.905Z,4.22
2022-09-11T00:04:49.374Z,2.58
2022-09-11T00:07:16.875Z,5.85
2022-09-11T00:09:44.315Z,6.05
2022-09-11T00:12:12.664Z,3.95
2022-09-11T00:14:40.853Z,2.60
2022-09-11T00:17:08.475Z,4.32
2022-09-11T00:19:36.480Z,2.25
2022-09-11T00:22:04.034Z,3.72
2022-09-11T00:24:31.500Z,3.85
2022-09-11T00:26:58.943Z,3.95
2022-09-11T00:29:26.810Z,3.50
2022-09-11T00:31:54.907Z,2.40
2022-09-11T00:34:22.331Z,3.75
2022-09-11T00:36:50.390Z,4.72
2022-09-11T00:39:18.351Z,4.28
2022-09-11T00:41:46.473Z,5.03
2022-09-11T00:44:16.066Z,4.78
2022-09-11T00:46:48.844Z,3.80
2022-09-11T00:49:30.683Z,4.38
2022-09-11T00:52:23.203Z,4.90
2022-09-11T00:54:57.724Z,5.10
2022-09-11T00:57:29.033Z,3.38
2022-09-11T00:59:59.053Z,4.80
2022-09-11T01:02:28.505Z,3.90
2022-09-11T01:04:58.282Z,4.43
2022-09-11T01:07:29.294Z,4.85
2022-09-11T01:09:57.423Z,4.90
2022-09-11T01:12:37.064Z,5.38
2022-09-11T01:15:14.203Z,4.25
2022-09-11T01:17:55.990Z,4.53
2022-09-11T01:20:39.063Z,4.93
2022-09-11T01:23:08.093Z,4.32
2022-09-11T01:25:38.742Z,3.97
2022-09-11T01:28:15.845Z,3.95
2022-09-11T01:30:50.985Z,3.42
2022-09-11T01:33:28.522Z,3.42
2022-09-11T01:36:06.083Z,6.38
2022-09-11T01:39:04.292Z,3.72
2022-09-11T01:41:40.570Z,4.38
2022-09-11T01:44:18.249Z,4.28
2022-09-11T01:46:50.113Z,5.45
2022-09-11T01:49:42.452Z,5.15
2022-09-11T01:52:15.760Z,4.88
2022-09-11T01:54:51.342Z,4.75
2022-09-11T01:57:32.977Z,4.20
2022-09-11T02:00:02.503Z,4.88
2022-09-11T02:02:36.403Z,5.07
2022-09-11T02:05:38.623Z,5.57
2022-09-11T02:08:26.365Z,4.43
2022-09-11T02:11:07.292Z,6.72
2022-09-11T02:14:04.529Z,3.67
2022-09-11T02:16:58.323Z,3.67
2022-09-11T02:19:29.709Z,3.25
2022-09-11T02:21:58.703Z,6.70
2022-09-11T02:24:27.558Z,5.68
2022-09-11T02:27:01.666Z,5.15
2022-09-11T02:29:31.803Z,5.65
2022-09-11T02:32:01.453Z,2.95
2022-09-11T02:34:34.261Z,3.60
2022-09-11T02:37:27.451Z,3.97
2022-09-11T02:40:04.032Z,5.90
2022-09-11T02:42:54.409Z,3.38
2022-09-11T02:45:35.747Z,3.85
2022-09-11T02:48:32.451Z,3.92
2022-09-11T02:51:24.192Z,5.80
2022-09-11T02:54:11.153Z,3.88
2022-09-11T02:56:45.251Z,4.45
2022-09-11T02:59:20.472Z,9.10
2022-09-11T03:01:53.641Z,4.68
2022-09-11T03:04:24.828Z,7.10
2022-09-11T03:06:54.552Z,7.20
2022-09-11T03:09:22.902Z,5.20
2022-09-11T03:11:55.401Z,4.57
2022-09-11T03:14:23.343Z,4.88
2022-09-11T03:16:51.418Z,7.45
2022-09-11T03:19:20.211Z,5.40
2022-09-11T03:21:47.618Z,4.65
2022-09-11T03:24:17.292Z,7.00
2022-09-11T03:26:46.575Z,4.65
2022-09-11T03:29:17.452Z,5.40
2022-09-11T03:31:44.951Z,7.72
2022-09-11T03:34:13.129Z,5.80
2022-09-11T03:36:41.522Z,4.65
2022-09-11T03:39:09.121Z,4.43
2022-09-11T03:41:37.428Z,4.60
2022-09-11T03:44:05.765Z,4.95
2022-09-11T03:46:33.229Z,3.28
2022-09-11T03:49:00.931Z,4.40
2022-09-11T03:51:31.391Z,5.03
2022-09-11T03:54:01.597Z,4.65
2022-09-11T03:56:30.761Z,4.35
2022-09-11T03:59:02.730Z,4.25
2022-09-11T04:01:31.373Z,4.33
2022-09-11T04:03:58.930Z,6.20
2022-09-11T04:06:35.158Z,5.38
2022-09-11T04:09:04.758Z,9.02
2022-09-11T04:11:36.779Z,7.22
2022-09-11T04:14:08.067Z,5.32
2022-09-11T04:16:38.498Z,6.20
2022-09-11T04:19:06.412Z,6.28
2022-09-11T04:21:34.975Z,9.70
2022-09-11T04:24:02.957Z,10.80
2022-09-11T04:26:32.717Z,7.57
2022-09-11T04:29:22.705Z,10.20
2022-09-11T04:31:51.594Z,9.18
2022-09-11T04:34:19.510Z,9.13
2022-09-11T04:36:47.091Z,10.20
2022-09-11T04:39:20.090Z,9.75
2022-09-11T04:41:49.361Z,9.45
2022-09-11T04:44:17.288Z,14.48
2022-09-11T04:46:45.533Z,16.90
2022-09-11T04:49:14.905Z,15.07
2022-09-11T04:51:43.991Z,19.45
2022-09-11T04:54:16.496Z,17.35
2022-09-11T04:56:44.910Z,13.75
2022-09-11T04:59:22.568Z,14.88
2022-09-11T05:02:06.527Z,13.38
2022-09-11T05:04:38.179Z,15.55
2022-09-11T05:07:05.969Z,14.32
2022-09-11T05:09:33.451Z,14.57
2022-09-11T05:12:03.263Z,14.52
2022-09-11T05:14:33.394Z,15.85
2022-09-11T05:17:03.496Z,14.43
2022-09-11T05:19:33.330Z,13.27
2022-09-11T05:22:00.970Z,10.90
2022-09-11T05:24:29.770Z,11.27
2022-09-11T05:26:59.321Z,11.32
2022-09-11T05:29:32.755Z,11.20
2022-09-11T05:32:09.998Z,8.32
2022-09-11T05:34:37.419Z,9.40
2022-09-11T05:37:05.586Z,13.40
2022-09-11T05:39:40.036Z,8.32
2022-09-11T05:42:09.230Z,10.00
2022-09-11T05:44:40.818Z,10.40
2022-09-11T05:47:08.409Z,9.60
2022-09-11T05:49:35.871Z,10.95
2022-09-11T05:52:05.092Z,8.68
2022-09-11T05:54:35.109Z,9.95
2022-09-11T05:57:07.824Z,8.40
2022-09-11T05:59:38.419Z,8.20
2022-09-11T06:02:06.458Z,8.75
2022-09-11T06:04:43.308Z,7.85
2022-09-11T06:07:10.949Z,6.88
2022-09-11T06:09:41.249Z,7.70
2022-09-11T06:12:13.005Z,6.93
2022-09-11T06:17:13.155Z,8.82
2022-09-11T06:19:40.793Z,11.30
2022-09-11T06:22:08.390Z,9.52
2022-09-11T06:24:40.455Z,9.43
2022-09-11T06:27:08.868Z,11.20
2022-09-11T06:29:39.229Z,10.20
2022-09-11T06:32:07.358Z,10.25
2022-09-11T06:34:34.969Z,9.35
2022-09-11T06:37:06.790Z,11.63
2022-09-11T06:39:34.430Z,9.25
2022-09-11T06:42:03.059Z,7.22
2022-09-11T06:44:35.255Z,11.70
2022-09-11T06:47:04.138Z,10.52
2022-09-11T06:49:33.529Z,11.93
2022-09-11T06:52:39.389Z,10.10
2022-09-11T06:55:33.635Z,11.60
2022-09-11T06:58:08.989Z,10.25
2022-09-11T07:00:36.961Z,10.80
2022-09-11T07:03:05.095Z,10.13
2022-09-11T07:05:33.844Z,12.02
2022-09-11T07:08:02.715Z,10.85
2022-09-11T07:10:33.746Z,14.05
2022-09-11T07:13:02.655Z,13.23
2022-09-11T07:15:32.279Z,13.98
2022-09-11T07:18:02.277Z,13.63
2022-09-11T07:20:31.700Z,14.27
2022-09-11T07:22:59.337Z,13.55
2022-09-11T07:25:29.358Z,12.35
2022-09-11T07:27:56.969Z,14.95
2022-09-11T07:30:24.530Z,13.73
2022-09-11T07:32:54.658Z,16.02
2022-09-11T07:35:22.334Z,14.55
2022-09-11T07:37:53.027Z,13.90
2022-09-11T07:40:25.311Z,15.52
2022-09-11T07:42:53.470Z,18.15
2022-09-11T07:45:22.869Z,14.93
2022-09-11T07:47:51.490Z,14.00
2022-09-11T07:50:19.519Z,18.40
2022-09-11T07:52:47.046Z,14.23
2022-09-11T07:55:15.741Z,14.90
2022-09-11T07:57:45.710Z,10.10
2022-09-11T08:00:16.582Z,13.57
2022-09-11T08:02:59.078Z,12.77
2022-09-11T08:05:34.369Z,12.02
2022-09-11T08:08:02.124Z,11.23
2022-09-11T08:10:30.644Z,11.80
2022-09-11T08:13:00.294Z,7.63
2022-09-11T08:15:35.745Z,7.20
2022-09-11T08:18:05.910Z,6.55
2022-09-11T08:20:33.648Z,8.40
2022-09-11T08:23:01.921Z,8.00
2022-09-11T08:25:29.554Z,6.38
2022-09-11T08:27:58.148Z,6.30
2022-09-11T08:30:27.087Z,6.05
2022-09-11T08:32:54.545Z,6.97
2022-09-11T08:35:22.197Z,9.15
2022-09-11T08:37:54.588Z,8.40
2022-09-11T08:40:22.798Z,8.13
2022-09-11T08:42:52.904Z,9.55
2022-09-11T08:45:24.833Z,7.88
2022-09-11T08:47:56.076Z,7.30
2022-09-11T08:50:33.903Z,7.28
2022-09-11T08:53:03.915Z,6.72
2022-09-11T08:55:41.346Z,7.35
2022-09-11T08:58:32.324Z,7.43
2022-09-11T09:01:33.566Z,5.75
2022-09-11T09:04:46.130Z,7.20
2022-09-11T09:07:27.847Z,11.75
2022-09-11T09:10:24.398Z,8.60
2022-09-11T09:13:16.788Z,8.20
2022-09-11T09:16:07.570Z,7.60
2022-09-11T09:18:42.021Z,7.95
2022-09-11T09:21:20.738Z,9.20
2022-09-11T09:24:01.673Z,7.30
2022-09-11T09:26:39.996Z,8.02
2022-09-11T09:29:19.905Z,11.20
2022-09-11T09:31:50.453Z,9.63
2022-09-11T09:34:21.046Z,10.05
2022-09-11T09:37:28.106Z,11.45
2022-09-11T09:39:57.158Z,14.02
2022-09-11T09:42:40.936Z,17.58
2022-09-11T09:45:10.129Z,21.48
2022-09-11T09:47:44.613Z,27.25
2022-09-11T09:50:19.849Z,27.98
2022-09-11T09:52:50.189Z,28.85
2022-09-11T09:55:19.147Z,29.17
2022-09-11T09:57:47.468Z,36.72
2022-09-11T10:00:18.133Z,31.50
2022-09-11T10:02:55.234Z,34.63
2022-09-11T10:05:42.467Z,31.30
2022-09-11T10:08:35.581Z,32.50
2022-09-11T10:11:14.856Z,32.58
2022-09-11T10:13:52.403Z,35.20
2022-09-11T10:16:23.498Z,30.88
2022-09-11T10:18:53.152Z,32.90
2022-09-11T10:21:29.705Z,36.95
2022-09-11T10:24:00.208Z,33.20
2022-09-11T10:26:35.227Z,29.63
2022-09-11T10:29:32.516Z,32.28
2022-09-11T10:32:02.741Z,32.90
2022-09-11T10:34:38.656Z,32.08
2022-09-11T10:37:13.955Z,37.65
2022-09-11T10:39:44.558Z,36.53
2022-09-11T10:42:22.528Z,42.88
2022-09-11T10:44:51.622Z,46.25
2022-09-11T10:47:29.140Z,37.97
2022-09-11T10:50:17.876Z,38.83
2022-09-11T10:53:10.223Z,35.75
2022-09-11T10:55:48.732Z,37.20
2022-09-11T10:58:24.118Z,31.30
2022-09-11T11:00:52.026Z,32.53
2022-09-11T11:03:28.219Z,31.05
2022-09-11T11:06:19.555Z,31.42
2022-09-11T11:09:25.615Z,28.45
2022-09-11T11:12:32.736Z,28.38
2022-09-11T11:15:19.961Z,30.10
2022-09-11T11:18:18.945Z,26.90
2022-09-11T11:21:13.846Z,28.73
2022-09-11T11:24:01.536Z,28.25
2022-09-11T11:26:50.396Z,28.83
2022-09-11T11:29:42.004Z,28.25
2022-09-11T11:32:33.296Z,29.70
2022-09-11T11:35:23.746Z,28.17
2022-09-11T11:38:01.834Z,29.10
2022-09-11T11:40:36.852Z,29.45
2022-09-11T11:43:12.261Z,30.25
2022-09-11T11:46:12.449Z,23.15
2022-09-11T11:48:56.221Z,26.05
2022-09-11T11:51:33.691Z,22.45
2022-09-11T11:54:17.659Z,22.60
2022-09-11T11:56:50.397Z,19.92
2022-09-11T11:59:32.167Z,20.05
2022-09-11T12:02:06.138Z,17.15
2022-09-11T12:07:24.344Z,17.30
2022-09-11T12:09:54.322Z,21.00
2022-09-11T12:12:24.945Z,17.23
2022-09-11T12:14:56.172Z,17.83
2022-09-11T12:17:31.161Z,17.63
2022-09-11T12:20:13.498Z,18.95
2022-09-11T12:22:50.485Z,20.35
2022-09-11T12:25:23.773Z,22.35
2022-09-11T12:28:13.095Z,24.25
2022-09-11T12:30:56.386Z,22.50
2022-09-11T12:33:43.636Z,21.97
2022-09-11T12:36:17.153Z,24.27
2022-09-11T12:39:26.630Z,32.92
2022-09-11T12:42:14.096Z,31.92
2022-09-11T12:44:47.460Z,32.17
2022-09-11T12:47:24.464Z,30.60
2022-09-11T12:50:19.213Z,29.10
2022-09-11T12:52:51.850Z,28.88
2022-09-11T12:55:39.866Z,31.30
2022-09-11T12:58:19.200Z,27.85
2022-09-11T13:00:51.100Z,33.50
2022-09-11T13:03:25.794Z,30.67
2022-09-11T13:05:58.954Z,26.83
2022-09-11T13:08:30.284Z,29.57
2022-09-11T13:11:39.751Z,33.13
2022-09-11T13:14:38.123Z,26.63
2022-09-11T13:17:15.654Z,27.85
2022-09-11T13:19:43.514Z,26.65
2022-09-11T13:22:40.225Z,28.83
2022-09-11T13:25:18.375Z,23.05
2022-09-11T13:30:17.042Z,20.65
2022-09-11T13:32:49.115Z,21.42
2022-09-11T13:35:23.994Z,17.27
2022-09-11T13:38:07.735Z,15.68
2022-09-11T13:40:55.620Z,17.45
2022-09-11T13:43:29.987Z,17.33
2022-09-11T13:46:11.595Z,20.33
2022-09-11T13:48:39.359Z,15.77
2022-09-11T13:51:14.804Z,15.27
2022-09-11T13:53:45.589Z,15.13
2022-09-11T13:56:41.565Z,14.27
2022-09-11T13:59:35.250Z,12.75
2022-09-11T14:02:08.703Z,12.07
2022-09-11T14:04:41.745Z,10.57
2022-09-11T14:07:24.840Z,13.20
2022-09-11T14:10:01.629Z,10.63
2022-09-11T14:12:29.533Z,11.95
2022-09-11T14:15:02.509Z,9.30
2022-09-11T14:17:30.043Z,12.00
2022-09-11T14:20:01.782Z,9.60
2022-09-11T14:22:32.544Z,10.07
2022-09-11T14:25:09.854Z,8.77
2022-09-11T14:27:41.913Z,10.52
2022-09-11T14:30:31.482Z,11.63
2022-09-11T14:33:21.932Z,9.25
2022-09-11T14:35:50.542Z,10.13
2022-09-11T14:38:21.036Z,8.60
2022-09-11T14:41:02.265Z,8.35
2022-09-11T14:43:33.249Z,8.57
2022-09-11T14:46:02.350Z,8.55
2022-09-11T14:48:32.264Z,8.90
2022-09-11T14:51:02.313Z,8.30
2022-09-11T14:53:32.172Z,12.57
2022-09-11T14:56:00.971Z,7.22
2022-09-11T14:58:29.959Z,8.45
2022-09-11T15:00:57.781Z,7.78
2022-09-11T15:03:25.803Z,8.30
2022-09-11T15:05:57.902Z,8.15
2022-09-11T15:08:26.037Z,7.07
2022-09-11T15:10:53.862Z,7.30
2022-09-11T15:13:22.118Z,8.25
2022-09-11T15:15:52.096Z,7.88
2022-09-11T15:18:19.751Z,7.10
2022-09-11T15:20:47.235Z,7.70
2022-09-11T15:23:16.623Z,7.57
2022-09-11T15:25:44.083Z,6.07
2022-09-11T15:28:11.654Z,7.63
2022-09-11T15:30:39.538Z,10.73
2022-09-11T15:33:07.173Z,7.47
2022-09-11T15:35:34.582Z,7.15
2022-09-11T15:38:04.672Z,8.52
2022-09-11T15:40:32.692Z,9.27
2022-09-11T15:43:00.171Z,7.13
2022-09-11T15:45:27.758Z,7.45
2022-09-11T15:47:55.202Z,9.88
2022-09-11T15:50:28.441Z,9.80
2022-09-11T15:52:56.161Z,10.85
2022-09-11T15:55:23.619Z,9.43
2022-09-11T15:57:51.084Z,7.50
2022-09-11T16:00:18.642Z,7.18
2022-09-11T16:02:46.090Z,8.98
2022-09-11T16:05:14.652Z,7.10
2022-09-11T16:07:42.142Z,8.45
2022-09-11T16:10:10.308Z,8.02
2022-09-11T16:12:38.502Z,8.70
2022-09-11T16:15:06.558Z,8.93
2022-09-11T16:17:34.011Z,10.05
2022-09-11T16:20:01.491Z,8.45
2022-09-11T16:22:31.539Z,8.63
2022-09-11T16:24:59.483Z,12.80
2022-09-11T16:27:27.102Z,12.27
2022-09-11T16:30:32.613Z,7.43
2022-09-11T16:32:42.654Z,9.65
2022-09-11T16:35:13.502Z,10.38
2022-09-11T16:37:41.431Z,7.63
2022-09-11T16:40:09.921Z,9.20
2022-09-11T16:42:37.869Z,8.68
2022-09-11T16:45:05.901Z,9.02
2022-09-11T16:47:33.523Z,8.13
2022-09-11T16:50:07.473Z,8.60
2022-09-11T16:52:35.534Z,9.38
2022-09-11T16:55:04.025Z,8.77
2022-09-11T16:57:32.742Z,7.20
2022-09-11T17:00:00.248Z,7.97
2022-09-11T17:02:27.731Z,11.63
2022-09-11T17:04:55.231Z,9.55
2022-09-11T17:07:23.866Z,7.70
2022-09-11T17:09:51.351Z,7.95
2022-09-11T17:12:18.767Z,6.78
2022-09-11T17:14:46.173Z,6.57
2022-09-11T17:17:13.761Z,7.70
2022-09-11T17:19:41.908Z,7.93
2022-09-11T17:22:10.869Z,7.43
2022-09-11T17:24:38.917Z,7.95
2022-09-11T17:27:06.546Z,7.22
2022-09-11T17:29:34.181Z,10.35
2022-09-11T17:32:26.087Z,9.85
2022-09-11T17:34:49.408Z,7.10
2022-09-11T17:37:17.247Z,7.85
2022-09-11T17:39:45.004Z,9.18
2022-09-11T17:42:13.566Z,8.95
2022-09-11T17:44:41.599Z,12.30
2022-09-11T17:47:09.405Z,10.65
2022-09-11T17:49:37.159Z,9.57
2022-09-11T17:52:04.801Z,10.00
2022-09-11T17:54:32.270Z,9.60
2022-09-11T17:56:59.656Z,9.48
2022-09-11T17:59:27.560Z,13.40
2022-09-11T18:01:55.048Z,8.15
2022-09-11T18:04:22.638Z,9.60
2022-09-11T18:06:51.313Z,8.93
2022-09-11T18:09:20.027Z,10.93
2022-09-11T18:11:49.941Z,8.82
2022-09-11T18:14:18.930Z,11.38
2022-09-11T18:16:47.988Z,11.57
2022-09-11T18:19:18.101Z,8.18
2022-09-11T18:21:49.988Z,10.10
2022-09-11T18:24:21.000Z,11.18
2022-09-11T18:26:59.991Z,11.65
2022-09-11T18:29:30.207Z,9.23
2022-09-11T18:32:00.220Z,11.65
2022-09-11T18:34:29.071Z,8.57
2022-09-11T18:36:56.879Z,8.88
2022-09-11T18:39:24.666Z,10.25
2022-09-11T18:41:55.140Z,10.77
2022-09-11T18:44:25.350Z,11.73
2022-09-11T18:46:54.548Z,11.40
2022-09-11T18:49:22.361Z,10.38
2022-09-11T18:51:50.160Z,10.13
2022-09-11T18:54:21.228Z,9.93
2022-09-11T18:56:50.552Z,11.02
2022-09-11T18:59:20.340Z,11.80
2022-09-11T19:01:48.294Z,13.73
2022-09-11T19:04:17.098Z,13.02
2022-09-11T19:06:45.396Z,9.80
2022-09-11T19:09:13.558Z,10.13
2022-09-11T19:11:41.714Z,11.55
2022-09-11T19:14:11.520Z,12.10
2022-09-11T19:16:39.676Z,12.90
2022-09-11T19:19:08.235Z,14.13
2022-09-11T19:21:37.898Z,16.15
2022-09-11T19:24:06.894Z,12.70
2022-09-11T19:26:38.991Z,15.38
2022-09-11T19:29:08.954Z,19.33
2022-09-11T19:31:39.411Z,15.82
2022-09-11T19:34:08.158Z,14.32
2022-09-11T19:36:36.210Z,14.35
2022-09-11T19:39:05.711Z,14.55
2022-09-11T19:41:37.509Z,14.73
2022-09-11T19:44:07.808Z,12.15
2022-09-11T19:46:38.266Z,11.45
2022-09-11T19:49:06.850Z,13.77
2022-09-11T19:51:43.325Z,16.83
2022-09-11T19:54:13.159Z,15.50
2022-09-11T19:56:42.594Z,12.15
2022-09-11T19:59:10.371Z,13.32
2022-09-11T20:01:38.439Z,14.15
2022-09-11T20:04:06.324Z,16.45
2022-09-11T20:06:35.515Z,14.23
2022-09-11T20:09:29.706Z,16.13
2022-09-11T20:11:52.490Z,12.55
2022-09-11T20:14:19.938Z,14.50
2022-09-11T20:16:47.468Z,14.43
2022-09-11T20:19:15.239Z,17.50
2022-09-11T20:21:43.034Z,13.02
2022-09-11T20:24:10.555Z,18.83
2022-09-11T20:26:38.182Z,14.25
2022-09-11T20:29:08.734Z,14.10
2022-09-11T20:31:47.434Z,15.57
2022-09-11T20:34:19.889Z,18.30
2022-09-11T20:36:48.167Z,16.38
2022-09-11T20:39:16.110Z,19.38
2022-09-11T20:41:44.050Z,17.60
2022-09-11T20:44:12.340Z,20.20
2022-09-11T20:46:40.215Z,17.98
2022-09-11T20:49:07.750Z,17.67
2022-09-11T20:51:35.498Z,20.27
2022-09-11T20:54:03.107Z,19.27
2022-09-11T20:56:31.387Z,18.90
2022-09-11T20:58:58.949Z,20.50
2022-09-11T21:01:32.622Z,18.88
2022-09-11T21:04:02.206Z,16.83
2022-09-11T21:06:31.664Z,24.88
2022-09-11T21:09:02.248Z,19.98
2022-09-11T21:11:30.599Z,19.65
2022-09-11T21:13:59.529Z,21.20
2022-09-11T21:16:27.714Z,20.45
2022-09-11T21:18:57.393Z,21.95
2022-09-11T21:21:26.787Z,16.98
2022-09-11T21:23:58.573Z,18.63
2022-09-11T21:26:28.733Z,20.77
2022-09-11T21:29:01.696Z,17.45
2022-09-11T21:31:30.470Z,22.13
2022-09-11T21:33:59.031Z,16.98
2022-09-11T21:36:27.027Z,18.55
2022-09-11T21:38:54.554Z,16.58
2022-09-11T21:41:22.093Z,23.05
2022-09-11T21:43:49.766Z,20.30
2022-09-11T21:46:17.324Z,20.17
2022-09-11T21:48:44.846Z,19.30
2022-09-11T21:51:15.187Z,20.65
2022-09-11T21:53:45.464Z,20.65
2022-09-11T21:56:22.113Z,17.50
2022-09-11T21:58:51.333Z,23.95
2022-09-11T22:01:20.077Z,20.88
2022-09-11T22:03:47.946Z,19.02
2022-09-11T22:06:16.027Z,19.95
2022-09-11T22:08:45.237Z,24.17
2022-09-11T22:11:14.847Z,20.17
2022-09-11T22:13:42.505Z,19.13
2022-09-11T22:16:13.096Z,23.95
2022-09-11T22:18:41.158Z,22.50
2022-09-11T22:21:10.502Z,23.08
2022-09-11T22:23:38.429Z,22.92
2022-09-11T22:26:17.646Z,23.60
2022-09-11T22:28:45.594Z,24.08
2022-09-11T22:31:17.193Z,23.67
2022-09-11T22:33:45.393Z,23.50
2022-09-11T22:36:19.925Z,23.70
2022-09-11T22:38:49.240Z,23.63
2022-09-11T22:41:17.538Z,20.58
2022-09-11T22:43:47.650Z,22.40
2022-09-11T22:46:16.415Z,23.23
2022-09-11T22:48:44.107Z,21.75
2022-09-11T22:51:32.080Z,27.13
2022-09-11T22:53:59.646Z,26.98
2022-09-11T22:56:27.041Z,22.20
2022-09-11T22:58:54.740Z,29.80
2022-09-11T23:01:22.957Z,26.13
2022-09-11T23:03:52.152Z,24.95
2022-09-11T23:06:39.441Z,22.25
2022-09-11T23:09:12.990Z,21.25
2022-09-11T23:11:45.320Z,22.73
2022-09-11T23:14:14.494Z,24.92
2022-09-11T23:16:42.945Z,24.85
2022-09-11T23:19:14.206Z,23.95
2022-09-11T23:21:42.096Z,25.20
2022-09-11T23:24:14.732Z,26.70
2022-09-11T23:26:43.570Z,28.10
2022-09-11T23:29:12.440Z,25.13
2022-09-11T23:31:41.093Z,23.15
2022-09-11T23:34:11.156Z,30.08
2022-09-11T23:36:38.640Z,26.20
2022-09-11T23:39:06.361Z,23.67
2022-09-11T23:41:34.016Z,27.13
2022-09-11T23:44:02.596Z,23.58
2022-09-11T23:46:30.051Z,26.33
2022-09-11T23:48:57.942Z,22.30
2022-09-11T23:51:26.921Z,26.92
2022-09-11T23:53:54.306Z,29.25
2022-09-11T23:56:22.629Z,24.05
2022-09-11T23:58:50.730Z,30.88
